Enterprise, Oregon
Current Conditions -  °F | °C
As of 9:15 AM on Saturday 20 Dec 2014 (Local Time) from KLGD Reporting Station
Overcast Overcast  
Wind Chill: 36°   Ceiling: 2000
Heat Index: 43°   Visibility: 10mi
Dew Point: 30°   Wind: 14mph
Humidity: 61%   Direction: 190°S
Pressure: 29.87"   Gusts: 17mph
Location:  45.43°N, 117.28°W
Report Text: KLGD 201715Z AUTO 19012G15KT 10SM BKN020 OVC050 06/M01 A2987 RMK AO1
Loading
Personal Weather Stations






























Interactive Weather Map New forecast layout! Learn more

10-Day Weather Forecast

Advertisements
Track Severe Weather on mobile